createdAt,value
2023-05-23T00:00:55.422Z,500.00
2023-05-23T00:01:55.491Z,453.00
2023-05-23T00:02:55.491Z,452.00
2023-05-23T00:03:55.471Z,443.00
2023-05-23T00:04:55.384Z,455.00
2023-05-23T00:05:55.370Z,470.00
2023-05-23T00:06:55.374Z,490.00
2023-05-23T00:07:55.363Z,500.00
2023-05-23T00:08:55.355Z,500.00
2023-05-23T00:09:55.346Z,499.00
2023-05-23T00:10:55.339Z,499.00
2023-05-23T00:11:55.451Z,500.00
2023-05-23T00:12:55.331Z,500.00
2023-05-23T00:13:55.316Z,500.00
2023-05-23T00:14:55.335Z,501.00
2023-05-23T00:15:55.301Z,500.00
2023-05-23T00:16:55.362Z,502.00
2023-05-23T00:17:55.318Z,500.00
2023-05-23T00:18:55.303Z,500.00
2023-05-23T00:19:55.271Z,502.00
2023-05-23T00:20:55.267Z,503.00
2023-05-23T00:21:55.256Z,500.00
2023-05-23T00:22:55.248Z,500.00
2023-05-23T00:23:55.237Z,500.00
2023-05-23T00:24:55.233Z,502.00
2023-05-23T00:25:55.252Z,500.00
2023-05-23T00:26:55.221Z,500.00
2023-05-23T00:27:55.362Z,500.00
2023-05-23T00:28:55.211Z,502.00
2023-05-23T00:29:55.197Z,500.00
2023-05-23T00:30:55.200Z,502.00
2023-05-23T00:31:55.187Z,500.00
2023-05-23T00:32:55.235Z,500.00
2023-05-23T00:33:55.181Z,507.00
2023-05-23T00:34:55.164Z,503.00
2023-05-23T00:35:55.165Z,500.00
2023-05-23T00:36:55.152Z,502.00
2023-05-23T00:37:55.145Z,501.00
2023-05-23T00:38:55.144Z,505.00
2023-05-23T00:39:55.128Z,505.00
2023-05-23T00:40:55.133Z,506.00
2023-05-23T00:41:55.115Z,500.00
2023-05-23T00:42:55.102Z,502.00
2023-05-23T00:43:55.214Z,500.00
2023-05-23T00:44:55.091Z,505.00
2023-05-23T00:45:55.090Z,503.00
2023-05-23T00:46:55.549Z,501.00
2023-05-23T00:47:55.095Z,504.00
2023-05-23T00:48:55.070Z,501.00
2023-05-23T00:49:55.064Z,502.00
2023-05-23T00:50:55.054Z,502.00
2023-05-23T00:51:55.058Z,506.00
2023-05-23T00:52:55.049Z,500.00
2023-05-23T00:53:55.029Z,506.00
2023-05-23T00:54:55.024Z,507.00
2023-05-23T00:55:55.032Z,506.00
2023-05-23T00:56:55.039Z,500.00
2023-05-23T00:57:55.005Z,501.00
2023-05-23T00:58:55.004Z,507.00
2023-05-23T00:59:55.114Z,507.00
2023-05-23T01:00:55.006Z,500.00
2023-05-23T01:01:55.039Z,503.00
2023-05-23T01:02:55.189Z,501.00
2023-05-23T01:03:55.041Z,507.00
2023-05-23T01:04:54.949Z,503.00
2023-05-23T01:05:54.960Z,508.00
2023-05-23T01:06:54.947Z,504.00
2023-05-23T01:07:54.927Z,504.00
2023-05-23T01:08:54.922Z,504.00
2023-05-23T01:09:54.916Z,503.00
2023-05-23T01:10:54.916Z,502.00
2023-05-23T01:11:54.915Z,503.00
2023-05-23T01:12:54.914Z,500.00
2023-05-23T01:13:54.912Z,504.00
2023-05-23T01:14:54.910Z,507.00
2023-05-23T01:15:55.062Z,512.00
2023-05-23T01:16:54.938Z,509.00
2023-05-23T01:17:54.953Z,511.00
2023-05-23T01:18:55.225Z,509.00
2023-05-23T01:19:54.916Z,507.00
2023-05-23T01:20:54.911Z,506.00
2023-05-23T01:21:54.912Z,509.00
2023-05-23T01:22:54.914Z,507.00
2023-05-23T01:23:54.913Z,509.00
2023-05-23T01:24:54.924Z,511.00
2023-05-23T01:25:54.918Z,510.00
2023-05-23T01:26:54.915Z,509.00
2023-05-23T01:27:54.919Z,507.00
2023-05-23T01:28:54.936Z,505.00
2023-05-23T01:29:54.916Z,511.00
2023-05-23T01:30:54.918Z,509.00
2023-05-23T01:31:55.102Z,504.00
2023-05-23T01:32:54.966Z,511.00
2023-05-23T01:33:54.906Z,509.00
2023-05-23T01:34:54.911Z,509.00
2023-05-23T01:35:54.899Z,505.00
2023-05-23T01:36:54.894Z,506.00
2023-05-23T01:37:54.919Z,513.00
2023-05-23T01:38:54.908Z,507.00
2023-05-23T01:39:54.897Z,513.00
2023-05-23T01:40:54.896Z,508.00
2023-05-23T01:41:54.931Z,510.00
2023-05-23T01:42:54.895Z,510.00
2023-05-23T01:43:54.909Z,510.00
2023-05-23T01:44:54.903Z,505.00
2023-05-23T01:45:54.964Z,504.00
2023-05-23T01:46:54.905Z,508.00
2023-05-23T01:47:55.074Z,506.00
2023-05-23T01:48:54.926Z,507.00
2023-05-23T01:49:54.919Z,506.00
2023-05-23T01:50:54.933Z,504.00
2023-05-23T01:51:54.928Z,505.00
2023-05-23T01:52:54.945Z,504.00
2023-05-23T01:53:54.937Z,506.00
2023-05-23T01:54:54.929Z,507.00
2023-05-23T01:55:54.932Z,507.00
2023-05-23T01:56:54.939Z,510.00
2023-05-23T01:57:54.926Z,505.00
2023-05-23T01:58:54.935Z,505.00
2023-05-23T01:59:54.956Z,509.00
2023-05-23T02:00:54.940Z,509.00
2023-05-23T02:01:54.940Z,509.00
2023-05-23T02:02:54.990Z,509.00
2023-05-23T02:03:55.085Z,507.00
2023-05-23T02:04:55.020Z,503.00
2023-05-23T02:05:54.963Z,506.00
2023-05-23T02:06:54.954Z,505.00
2023-05-23T02:07:54.965Z,506.00
2023-05-23T02:08:54.971Z,507.00
2023-05-23T02:09:54.977Z,505.00
2023-05-23T02:10:54.976Z,501.00
2023-05-23T02:11:54.998Z,508.00
2023-05-23T02:12:54.995Z,504.00
2023-05-23T02:13:54.987Z,504.00
2023-05-23T02:14:55.002Z,505.00
2023-05-23T02:15:54.999Z,502.00
2023-05-23T02:16:55.083Z,503.00
2023-05-23T02:17:55.054Z,503.00
2023-05-23T02:18:55.087Z,504.00
2023-05-23T02:19:55.157Z,509.00
2023-05-23T02:20:55.033Z,509.00
2023-05-23T02:21:55.034Z,507.00
2023-05-23T02:22:55.029Z,506.00
2023-05-23T02:23:55.045Z,509.00
2023-05-23T02:24:55.065Z,507.00
2023-05-23T02:25:55.049Z,508.00
2023-05-23T02:26:55.049Z,503.00
2023-05-23T02:27:55.061Z,506.00
2023-05-23T02:28:55.083Z,507.00
2023-05-23T02:29:55.077Z,508.00
2023-05-23T02:30:55.080Z,503.00
2023-05-23T02:31:55.080Z,505.00
2023-05-23T02:32:55.119Z,508.00
2023-05-23T02:33:55.097Z,504.00
2023-05-23T02:34:57.282Z,503.00
2023-05-23T02:35:55.232Z,509.00
2023-05-23T02:36:55.098Z,510.00
2023-05-23T02:37:55.090Z,501.00
2023-05-23T02:38:55.079Z,505.00
2023-05-23T02:39:55.104Z,504.00
2023-05-23T02:40:55.065Z,504.00
2023-05-23T02:41:55.059Z,503.00
2023-05-23T02:42:55.051Z,501.00
2023-05-23T02:43:55.043Z,508.00
2023-05-23T02:44:55.037Z,509.00
2023-05-23T02:45:55.081Z,507.00
2023-05-23T02:46:55.024Z,505.00
2023-05-23T02:47:55.031Z,509.00
2023-05-23T02:48:55.011Z,503.00
2023-05-23T02:49:55.000Z,501.00
2023-05-23T02:50:55.001Z,500.00
2023-05-23T02:51:55.109Z,504.00
2023-05-23T02:52:54.979Z,503.00
2023-05-23T02:53:54.981Z,505.00
2023-05-23T02:54:54.974Z,503.00
2023-05-23T02:55:54.980Z,505.00
2023-05-23T02:56:54.961Z,501.00
2023-05-23T02:57:54.969Z,505.00
2023-05-23T02:58:54.972Z,504.00
2023-05-23T02:59:54.952Z,505.00
2023-05-23T03:00:54.934Z,506.00
2023-05-23T03:01:54.979Z,504.00
2023-05-23T03:02:55.005Z,507.00
2023-05-23T03:03:54.975Z,504.00
2023-05-23T03:04:54.910Z,503.00
2023-05-23T03:05:54.907Z,502.00
2023-05-23T03:06:54.888Z,509.00
2023-05-23T03:07:55.018Z,506.00
2023-05-23T03:08:54.957Z,513.00
2023-05-23T03:09:54.871Z,507.00
2023-05-23T03:10:54.871Z,508.00
2023-05-23T03:11:54.856Z,509.00
2023-05-23T03:12:54.855Z,507.00
2023-05-23T03:13:54.906Z,507.00
2023-05-23T03:14:54.832Z,510.00
2023-05-23T03:15:54.846Z,508.00
2023-05-23T03:16:54.818Z,510.00
2023-05-23T03:17:54.848Z,507.00
2023-05-23T03:18:54.852Z,505.00
2023-05-23T03:19:54.808Z,507.00
2023-05-23T03:20:54.792Z,503.00
2023-05-23T03:21:54.784Z,504.00
2023-05-23T03:22:54.779Z,504.00
2023-05-23T03:23:54.901Z,506.00
2023-05-23T03:24:54.762Z,504.00
2023-05-23T03:25:54.754Z,503.00
2023-05-23T03:26:54.750Z,504.00
2023-05-23T03:27:54.742Z,503.00
2023-05-23T03:28:54.726Z,505.00
2023-05-23T03:29:54.715Z,503.00
2023-05-23T03:30:54.710Z,504.00
2023-05-23T03:31:54.818Z,501.00
2023-05-23T03:32:54.756Z,504.00
2023-05-23T03:33:54.691Z,506.00
2023-05-23T03:34:54.696Z,500.00
2023-05-23T03:35:54.678Z,503.00
2023-05-23T03:36:54.676Z,504.00
2023-05-23T03:37:54.682Z,502.00
2023-05-23T03:38:54.648Z,500.00
2023-05-23T03:39:54.775Z,504.00
2023-05-23T03:40:54.641Z,505.00
2023-05-23T03:41:54.634Z,504.00
2023-05-23T03:42:54.615Z,501.00
2023-05-23T03:43:54.608Z,507.00
2023-05-23T03:44:54.604Z,505.00
2023-05-23T03:45:54.665Z,504.00
2023-05-23T03:46:54.606Z,504.00
2023-05-23T03:47:54.621Z,506.00
2023-05-23T03:48:54.576Z,508.00
2023-05-23T03:49:54.587Z,502.00
2023-05-23T03:50:54.596Z,510.00
2023-05-23T03:51:54.560Z,508.00
2023-05-23T03:52:54.602Z,510.00
2023-05-23T03:53:54.537Z,508.00
2023-05-23T03:54:54.554Z,510.00
2023-05-23T03:55:54.655Z,511.00
2023-05-23T03:56:54.523Z,504.00
2023-05-23T03:57:54.626Z,514.00
2023-05-23T03:58:54.529Z,511.00
2023-05-23T03:59:54.518Z,511.00
2023-05-23T04:00:54.503Z,510.00
2023-05-23T04:01:54.561Z,510.00
2023-05-23T04:02:54.687Z,511.00
2023-05-23T04:03:54.604Z,509.00
2023-05-23T04:04:54.535Z,508.00
2023-05-23T04:05:54.549Z,515.00
2023-05-23T04:06:54.554Z,512.00
2023-05-23T04:07:54.565Z,510.00
2023-05-23T04:08:54.572Z,514.00
2023-05-23T04:09:54.590Z,513.00
2023-05-23T04:10:54.606Z,508.00
2023-05-23T04:11:54.749Z,509.00
2023-05-23T04:12:54.635Z,506.00
2023-05-23T04:13:54.640Z,511.00
2023-05-23T04:14:54.639Z,511.00
2023-05-23T04:15:54.696Z,510.00
2023-05-23T04:16:54.643Z,508.00
2023-05-23T04:17:54.674Z,512.00
2023-05-23T04:18:54.737Z,510.00
2023-05-23T04:19:54.659Z,508.00
2023-05-23T04:20:54.678Z,506.00
2023-05-23T04:21:54.679Z,507.00
2023-05-23T04:22:54.697Z,506.00
2023-05-23T04:23:55.271Z,510.00
2023-05-23T04:24:54.712Z,511.00
2023-05-23T04:25:54.738Z,504.00
2023-05-23T04:26:54.738Z,506.00
2023-05-23T04:27:54.892Z,509.00
2023-05-23T04:28:54.780Z,507.00
2023-05-23T04:29:54.781Z,508.00
2023-05-23T04:30:54.855Z,511.00
2023-05-23T04:31:54.808Z,504.00
2023-05-23T04:32:54.918Z,512.00
2023-05-23T04:33:54.852Z,506.00
2023-05-23T04:34:54.844Z,509.00
2023-05-23T04:35:54.846Z,506.00
2023-05-23T04:36:54.871Z,506.00
2023-05-23T04:37:54.876Z,507.00
2023-05-23T04:38:54.930Z,505.00
2023-05-23T04:39:54.907Z,510.00
2023-05-23T04:40:54.927Z,504.00
2023-05-23T04:41:54.922Z,508.00
2023-05-23T04:42:54.939Z,506.00
2023-05-23T04:43:55.311Z,508.00
2023-05-23T04:44:54.965Z,508.00
2023-05-23T04:45:54.968Z,509.00
2023-05-23T04:46:55.028Z,507.00
2023-05-23T04:47:55.088Z,508.00
2023-05-23T04:48:55.051Z,507.00
2023-05-23T04:49:55.021Z,506.00
2023-05-23T04:50:55.026Z,503.00
2023-05-23T04:51:55.055Z,501.00
2023-05-23T04:52:55.064Z,506.00
2023-05-23T04:53:55.089Z,509.00
2023-05-23T04:54:55.104Z,504.00
2023-05-23T04:55:55.112Z,501.00
2023-05-23T04:56:55.123Z,505.00
2023-05-23T04:57:55.123Z,508.00
2023-05-23T04:58:55.132Z,504.00
2023-05-23T04:59:55.257Z,505.00
2023-05-23T05:00:55.176Z,510.00
2023-05-23T05:01:55.196Z,507.00
2023-05-23T05:02:55.254Z,508.00
2023-05-23T05:03:55.225Z,510.00
2023-05-23T05:04:55.201Z,508.00
2023-05-23T05:05:55.230Z,512.00
2023-05-23T05:06:55.225Z,508.00
2023-05-23T05:07:55.269Z,509.00
2023-05-23T05:08:55.254Z,509.00
2023-05-23T05:09:55.284Z,508.00
2023-05-23T05:10:55.273Z,510.00
2023-05-23T05:11:55.287Z,509.00
2023-05-23T05:12:55.314Z,508.00
2023-05-23T05:13:55.326Z,510.00
2023-05-23T05:14:55.764Z,510.00
2023-05-23T05:15:55.462Z,513.00
2023-05-23T05:16:55.372Z,509.00
2023-05-23T05:17:55.403Z,508.00
2023-05-23T05:18:55.432Z,511.00
2023-05-23T05:19:55.761Z,512.00
2023-05-23T05:20:55.416Z,510.00
2023-05-23T05:21:55.420Z,515.00
2023-05-23T05:22:55.437Z,513.00
2023-05-23T05:23:55.456Z,511.00
2023-05-23T05:24:55.466Z,511.00
2023-05-23T05:25:55.491Z,513.00
2023-05-23T05:26:55.500Z,513.00
2023-05-23T05:27:55.500Z,509.00
2023-05-23T05:28:55.525Z,513.00
2023-05-23T05:29:55.506Z,508.00
2023-05-23T05:30:55.658Z,508.00
2023-05-23T05:31:55.664Z,507.00
2023-05-23T05:32:55.584Z,511.00
2023-05-23T05:33:55.581Z,510.00
2023-05-23T05:34:55.563Z,511.00
2023-05-23T05:35:56.267Z,512.00
2023-05-23T05:36:55.588Z,518.00
2023-05-23T05:37:55.603Z,516.00
2023-05-23T05:38:55.602Z,516.00
2023-05-23T05:39:55.638Z,517.00
2023-05-23T05:40:55.622Z,519.00
2023-05-23T05:41:55.624Z,519.00
2023-05-23T05:42:55.626Z,516.00
2023-05-23T05:43:55.644Z,517.00
2023-05-23T05:44:55.780Z,516.00
2023-05-23T05:45:55.826Z,518.00
2023-05-23T05:46:55.700Z,516.00
2023-05-23T05:47:55.807Z,517.00
2023-05-23T05:48:55.828Z,514.00
2023-05-23T05:49:55.649Z,520.00
2023-05-23T05:50:55.683Z,516.00
2023-05-23T05:51:55.659Z,517.00
2023-05-23T05:52:55.662Z,517.00
2023-05-23T05:53:55.832Z,520.00
2023-05-23T05:54:55.662Z,523.00
2023-05-23T05:55:55.664Z,537.00
2023-05-23T05:57:11.277Z,534.00
2023-05-23T05:57:58.885Z,535.00
2023-05-23T05:58:56.073Z,536.00
2023-05-23T05:59:55.651Z,542.00
2023-05-23T06:00:55.651Z,550.00
2023-05-23T06:01:55.798Z,576.00
2023-05-23T06:02:55.771Z,597.00
2023-05-23T06:03:56.834Z,605.00
2023-05-23T06:04:55.790Z,620.00
2023-05-23T06:07:56.283Z,633.00
2023-05-23T06:09:56.188Z,633.00
2023-05-23T06:10:56.339Z,639.00
2023-05-23T06:11:55.940Z,649.00
2023-05-23T06:12:56.135Z,663.00
2023-05-23T06:13:55.875Z,709.00
2023-05-23T06:14:56.377Z,717.00
2023-05-23T06:15:56.028Z,745.00
2023-05-23T06:16:55.867Z,787.00
2023-05-23T06:17:57.102Z,814.00
2023-05-23T06:18:56.287Z,819.00
2023-05-23T06:19:56.355Z,853.00
2023-05-23T06:20:56.442Z,876.00
2023-05-23T06:21:55.950Z,908.00
2023-05-23T06:22:56.355Z,898.00
2023-05-23T06:23:56.208Z,912.00
2023-05-23T06:24:56.323Z,918.00
2023-05-23T06:25:55.975Z,939.00
2023-05-23T06:26:56.204Z,938.00
2023-05-23T06:27:56.190Z,938.00
2023-05-23T06:28:56.274Z,965.00
2023-05-23T06:29:56.392Z,967.00
2023-05-23T06:30:56.188Z,999.00
2023-05-23T06:31:56.050Z,1006.00
2023-05-23T06:32:56.287Z,1026.00
2023-05-23T06:33:56.223Z,1025.00
2023-05-23T06:34:56.153Z,1025.00
2023-05-23T06:35:56.439Z,1057.00
2023-05-23T06:36:57.035Z,1082.00
2023-05-23T06:37:56.298Z,1083.00
2023-05-23T06:38:55.937Z,1096.00
2023-05-23T06:39:56.205Z,1100.00
2023-05-23T06:40:56.220Z,1099.00
2023-05-23T06:41:57.324Z,1100.00
2023-05-23T06:43:05.355Z,1119.00
2023-05-23T06:43:56.245Z,1121.00
2023-05-23T06:46:12.093Z,1121.00
2023-05-23T06:46:56.181Z,1121.00
2023-05-23T06:47:56.414Z,1126.00
2023-05-23T06:49:15.048Z,1126.00
2023-05-23T06:49:57.713Z,1121.00
2023-05-23T06:50:56.378Z,1122.00
2023-05-23T06:51:56.702Z,1121.00
2023-05-23T06:52:56.883Z,1129.00
2023-05-23T06:53:56.182Z,1137.00
2023-05-23T06:54:56.288Z,1141.00
2023-05-23T06:55:56.176Z,1168.00
2023-05-23T06:56:56.306Z,1166.00
2023-05-23T06:57:56.014Z,1177.00
2023-05-23T06:58:56.289Z,1184.00
2023-05-23T06:59:56.323Z,1183.00
2023-05-23T07:00:56.170Z,1192.00
2023-05-23T07:01:56.395Z,1198.00
2023-05-23T07:02:57.152Z,1201.00
2023-05-23T07:03:56.281Z,1186.00
2023-05-23T07:04:56.886Z,1201.00
2023-05-23T07:05:56.387Z,1208.00
2023-05-23T07:06:56.367Z,1213.00
2023-05-23T07:07:56.737Z,1212.00
2023-05-23T07:08:56.339Z,1211.00
2023-05-23T07:09:56.348Z,1207.00
2023-05-23T07:10:56.761Z,1213.00
2023-05-23T07:11:56.524Z,1204.00
2023-05-23T07:12:56.664Z,1209.00
2023-05-23T07:13:56.391Z,1195.00
2023-05-23T07:14:56.299Z,1191.00
2023-05-23T07:15:56.314Z,1187.00
2023-05-23T07:16:56.399Z,1174.00
2023-05-23T07:17:56.402Z,1174.00
2023-05-23T07:18:56.453Z,1159.00
2023-05-23T07:19:56.461Z,1157.00
2023-05-23T07:20:56.471Z,1158.00
2023-05-23T07:21:56.830Z,1144.00
2023-05-23T07:22:56.541Z,1132.00
2023-05-23T07:23:56.698Z,1145.00
2023-05-23T07:24:56.671Z,1133.00
2023-05-23T07:26:02.376Z,1135.00
2023-05-23T07:26:56.650Z,1136.00
2023-05-23T07:27:56.631Z,1138.00
2023-05-23T07:28:56.632Z,1136.00
2023-05-23T07:29:56.832Z,1133.00
2023-05-23T07:30:56.621Z,1121.00
2023-05-23T07:31:57.619Z,1111.00
2023-05-23T07:32:56.818Z,1128.00
2023-05-23T07:33:56.823Z,1107.00
2023-05-23T07:34:56.843Z,1117.00
2023-05-23T07:37:12.221Z,1106.00
2023-05-23T07:37:56.812Z,1107.00
2023-05-23T07:38:59.823Z,1112.00
2023-05-23T07:39:56.813Z,1107.00
2023-05-23T07:41:10.677Z,1108.00
2023-05-23T07:42:56.551Z,1107.00
2023-05-23T07:43:57.611Z,1109.00
2023-05-23T07:44:56.812Z,1115.00
2023-05-23T07:45:56.524Z,1107.00
2023-05-23T07:46:56.673Z,1103.00
2023-05-23T07:47:56.849Z,1092.00
2023-05-23T07:48:56.493Z,1094.00
2023-05-23T07:49:56.818Z,1104.00
2023-05-23T07:50:56.473Z,1103.00
2023-05-23T07:51:56.466Z,1127.00
2023-05-23T07:53:12.090Z,1134.00
2023-05-23T07:53:59.645Z,1135.00
2023-05-23T07:54:56.844Z,1136.00
2023-05-23T07:55:56.454Z,1140.00
2023-05-23T07:56:56.505Z,1149.00
2023-05-23T07:57:56.458Z,1160.00
2023-05-23T07:58:56.415Z,1173.00
2023-05-23T07:59:56.814Z,1171.00
2023-05-23T08:00:56.432Z,1176.00
2023-05-23T08:03:12.100Z,1177.00
2023-05-23T08:03:59.615Z,1178.00
2023-05-23T08:04:57.390Z,1178.00
2023-05-23T08:05:56.827Z,1188.00
2023-05-23T08:07:55.571Z,1177.00
2023-05-23T08:08:56.351Z,1185.00
2023-05-23T08:09:56.821Z,1197.00
2023-05-23T08:10:56.372Z,1237.00
2023-05-23T08:11:56.322Z,1255.00
2023-05-23T08:12:56.534Z,1247.00
2023-05-23T08:13:56.309Z,1263.00
2023-05-23T08:14:56.337Z,1294.00
2023-05-23T08:15:59.564Z,1296.00
2023-05-23T08:16:56.368Z,1298.00
2023-05-23T08:17:56.363Z,1301.00
2023-05-23T08:18:56.326Z,1312.00
2023-05-23T08:19:56.343Z,1308.00
2023-05-23T08:21:03.684Z,1334.00
2023-05-23T08:21:56.264Z,1301.00
2023-05-23T08:22:56.297Z,1313.00
2023-05-23T08:23:56.240Z,1328.00
2023-05-23T08:24:56.234Z,1353.00
2023-05-23T08:25:57.233Z,1382.00
2023-05-23T08:26:56.240Z,1391.00
2023-05-23T08:27:56.215Z,1422.00
2023-05-23T08:28:56.206Z,1407.00
2023-05-23T08:29:56.329Z,1430.00
2023-05-23T08:30:56.195Z,1442.00
2023-05-23T08:31:56.464Z,1433.00
2023-05-23T08:32:56.210Z,1432.00
2023-05-23T08:33:57.171Z,1468.00
2023-05-23T08:34:56.374Z,1508.00
2023-05-23T08:36:03.611Z,1477.00
2023-05-23T08:36:56.259Z,1479.00
2023-05-23T08:37:56.206Z,1487.00
2023-05-23T08:38:56.200Z,1499.00
2023-05-23T08:39:56.387Z,1527.00
2023-05-23T08:40:56.180Z,1526.00
2023-05-23T08:41:56.170Z,1561.00
2023-05-23T08:42:56.244Z,1546.00
2023-05-23T08:43:56.167Z,1557.00
2023-05-23T08:44:56.340Z,1579.00
2023-05-23T08:45:56.166Z,1597.00
2023-05-23T08:46:56.142Z,1573.00
2023-05-23T08:47:56.152Z,1627.00
2023-05-23T08:48:56.131Z,1614.00
2023-05-23T08:49:59.543Z,1612.00
2023-05-23T08:50:56.113Z,1613.00
2023-05-23T08:51:56.116Z,1617.00
2023-05-23T08:52:56.145Z,1628.00
2023-05-23T08:53:59.332Z,1630.00
2023-05-23T08:54:56.093Z,1615.00
2023-05-23T08:55:56.096Z,1620.00
2023-05-23T08:56:57.104Z,1638.00
2023-05-23T08:57:56.122Z,1664.00
2023-05-23T08:58:56.077Z,1727.00
2023-05-23T08:59:56.343Z,1715.00
2023-05-23T09:00:56.048Z,1710.00
2023-05-23T09:01:56.091Z,1733.00
2023-05-23T09:02:56.050Z,1714.00
2023-05-23T09:03:56.024Z,1741.00
2023-05-23T09:04:56.028Z,1741.00
2023-05-23T09:05:56.073Z,1727.00
2023-05-23T09:06:56.014Z,1750.00
2023-05-23T09:07:56.342Z,1762.00
2023-05-23T09:08:56.077Z,1765.00
2023-05-23T09:09:56.359Z,1793.00
2023-05-23T09:10:56.072Z,1787.00
2023-05-23T09:11:56.098Z,1770.00
2023-05-23T09:12:56.126Z,1818.00
2023-05-23T09:13:56.166Z,1803.00
2023-05-23T09:14:56.208Z,1811.00
2023-05-23T09:15:56.241Z,1810.00
2023-05-23T09:16:56.239Z,1819.00
2023-05-23T09:17:56.293Z,1814.00
2023-05-23T09:18:56.317Z,1812.00
2023-05-23T09:19:56.378Z,1805.00
2023-05-23T09:20:56.338Z,1819.00
2023-05-23T09:21:56.330Z,1820.00
2023-05-23T09:22:56.350Z,1842.00
2023-05-23T09:23:56.370Z,1846.00
2023-05-23T09:24:56.851Z,1864.00
2023-05-23T09:25:56.404Z,1875.00
2023-05-23T09:26:56.417Z,1860.00
2023-05-23T09:27:56.446Z,1902.00
2023-05-23T09:28:56.457Z,1894.00
2023-05-23T09:29:56.855Z,1878.00
2023-05-23T09:30:56.512Z,1883.00
2023-05-23T09:31:56.620Z,1870.00
2023-05-23T09:32:57.207Z,1870.00
2023-05-23T09:33:56.564Z,1850.00
2023-05-23T09:34:56.855Z,1852.00
2023-05-23T09:35:56.594Z,1848.00
2023-05-23T09:36:56.618Z,1853.00
2023-05-23T09:37:56.868Z,1869.00
2023-05-23T09:38:56.689Z,1842.00
2023-05-23T09:39:56.945Z,1827.00
2023-05-23T09:40:56.747Z,1810.00
2023-05-23T09:41:56.835Z,1827.00
2023-05-23T09:42:56.826Z,1810.00
2023-05-23T09:43:56.860Z,1826.00
2023-05-23T09:44:57.359Z,1821.00
2023-05-23T09:45:57.361Z,1802.00
2023-05-23T09:46:57.032Z,1802.00
2023-05-23T09:47:57.018Z,1805.00
2023-05-23T09:48:57.064Z,1801.00
2023-05-23T09:49:57.105Z,1791.00
2023-05-23T09:50:57.164Z,1791.00
2023-05-23T09:51:57.172Z,1800.00
2023-05-23T09:52:57.218Z,1788.00
2023-05-23T09:54:00.466Z,1780.00
2023-05-23T09:54:57.274Z,1782.00
2023-05-23T09:55:57.260Z,1784.00
2023-05-23T09:56:58.361Z,1789.00
2023-05-23T09:57:57.234Z,1807.00
2023-05-23T09:58:57.270Z,1801.00
2023-05-23T09:59:57.235Z,1821.00
2023-05-23T10:01:04.863Z,1795.00
2023-05-23T10:01:57.226Z,1798.00
2023-05-23T10:02:57.314Z,1803.00
2023-05-23T10:03:59.664Z,1806.00
2023-05-23T10:04:57.204Z,1798.00
2023-05-23T10:05:57.904Z,1805.00
2023-05-23T10:06:57.215Z,1826.00
2023-05-23T10:07:57.182Z,1838.00
2023-05-23T10:08:57.157Z,1863.00
2023-05-23T10:09:59.044Z,1860.00
2023-05-23T10:10:57.481Z,1885.00
2023-05-23T10:11:57.131Z,1888.00
2023-05-23T10:12:57.390Z,1880.00
2023-05-23T10:13:57.133Z,1849.00
2023-05-23T10:14:57.128Z,1865.00
2023-05-23T10:15:58.220Z,1871.00
2023-05-23T10:16:57.424Z,1885.00
2023-05-23T10:17:57.466Z,1890.00
2023-05-23T10:18:57.122Z,1886.00
2023-05-23T10:19:57.077Z,1885.00
2023-05-23T10:20:57.073Z,1898.00
2023-05-23T10:21:57.380Z,1929.00
2023-05-23T10:22:57.063Z,1904.00
2023-05-23T10:23:57.060Z,1882.00
2023-05-23T10:24:57.373Z,1912.00
2023-05-23T10:25:57.043Z,1916.00
2023-05-23T10:26:57.377Z,1924.00
2023-05-23T10:27:57.079Z,1921.00
2023-05-23T10:28:57.379Z,1928.00
2023-05-23T10:29:57.131Z,1938.00
2023-05-23T10:30:57.193Z,1927.00
2023-05-23T10:31:57.181Z,1913.00
2023-05-23T10:32:57.257Z,1903.00
2023-05-23T10:33:57.382Z,1889.00
2023-05-23T10:34:57.411Z,1909.00
2023-05-23T10:35:57.322Z,1909.00
2023-05-23T10:36:57.374Z,1907.00
2023-05-23T10:37:57.309Z,1898.00
2023-05-23T10:38:57.335Z,1903.00
2023-05-23T10:39:57.495Z,1909.00
2023-05-23T10:40:57.361Z,1905.00
2023-05-23T10:41:57.371Z,1915.00
2023-05-23T10:42:57.371Z,1904.00
2023-05-23T10:43:57.383Z,1928.00
2023-05-23T10:44:58.630Z,1923.00
2023-05-23T10:45:57.441Z,1946.00
2023-05-23T10:46:58.496Z,1950.00
2023-05-23T10:47:57.389Z,1965.00
2023-05-23T10:48:57.378Z,1960.00
2023-05-23T10:49:57.381Z,1963.00
2023-05-23T10:50:57.393Z,1973.00
2023-05-23T10:51:57.369Z,1973.00
2023-05-23T10:52:57.376Z,1979.00
2023-05-23T10:53:57.325Z,1975.00
2023-05-23T10:54:57.338Z,1981.00
2023-05-23T10:55:57.404Z,1989.00
2023-05-23T10:56:57.300Z,1996.00
2023-05-23T10:57:57.299Z,2003.00
2023-05-23T10:58:57.287Z,2000.00
2023-05-23T10:59:57.288Z,2023.00
2023-05-23T11:00:57.383Z,2022.00
2023-05-23T11:01:57.310Z,2046.00
2023-05-23T11:02:57.365Z,2060.00
2023-05-23T11:03:57.469Z,2062.00
2023-05-23T11:04:57.249Z,2080.00
2023-05-23T11:05:57.382Z,2071.00
2023-05-23T11:06:57.250Z,2044.00
2023-05-23T11:07:57.383Z,1997.00
2023-05-23T11:08:57.212Z,1994.00
2023-05-23T11:09:57.385Z,1959.00
2023-05-23T11:10:57.225Z,1952.00
2023-05-23T11:11:57.206Z,1931.00
2023-05-23T11:12:57.421Z,1915.00
2023-05-23T11:13:57.258Z,1909.00
2023-05-23T11:14:57.404Z,1896.00
2023-05-23T11:15:57.212Z,1880.00
2023-05-23T11:16:57.233Z,1835.00
2023-05-23T11:17:58.420Z,1821.00
2023-05-23T11:18:57.418Z,1784.00
2023-05-23T11:20:04.810Z,1790.00
2023-05-23T11:20:57.200Z,1794.00
2023-05-23T11:21:57.176Z,1807.00
2023-05-23T11:22:57.200Z,1827.00
2023-05-23T11:23:57.159Z,1840.00
2023-05-23T11:24:57.421Z,1873.00
2023-05-23T11:25:57.158Z,1897.00
2023-05-23T11:26:57.135Z,1917.00
2023-05-23T11:27:57.403Z,1918.00
2023-05-23T11:28:57.139Z,1913.00
2023-05-23T11:29:58.003Z,1914.00
2023-05-23T11:30:57.121Z,1917.00
2023-05-23T11:31:57.163Z,1913.00
2023-05-23T11:32:57.477Z,1910.00
2023-05-23T11:33:57.089Z,1892.00
2023-05-23T11:34:57.108Z,1877.00
2023-05-23T11:35:57.106Z,1881.00
2023-05-23T11:36:57.160Z,1880.00
2023-05-23T11:38:13.027Z,1860.00
2023-05-23T11:38:57.065Z,1861.00
2023-05-23T11:39:57.433Z,1856.00
2023-05-23T11:40:57.048Z,1832.00
2023-05-23T11:41:57.037Z,1814.00
2023-05-23T11:42:57.050Z,1828.00
2023-05-23T11:43:57.027Z,1824.00
2023-05-23T11:44:57.441Z,1831.00
2023-05-23T11:45:57.058Z,1847.00
2023-05-23T11:46:57.006Z,1875.00
2023-05-23T11:47:57.070Z,1910.00
2023-05-23T11:48:57.007Z,1920.00
2023-05-23T11:49:58.426Z,1930.00
2023-05-23T11:50:56.985Z,1963.00
2023-05-23T11:51:56.977Z,1977.00
2023-05-23T11:52:57.006Z,1967.00
2023-05-23T11:53:56.996Z,1956.00
2023-05-23T11:55:02.068Z,1955.00
2023-05-23T11:55:56.988Z,1957.00
2023-05-23T11:56:56.942Z,1959.00
2023-05-23T11:57:56.932Z,1962.00
2023-05-23T11:58:56.920Z,1957.00
2023-05-23T11:59:56.940Z,1948.00
2023-05-23T12:00:56.913Z,1949.00
2023-05-23T12:01:56.919Z,1944.00
2023-05-23T12:02:57.288Z,1939.00
2023-05-23T12:03:56.965Z,1931.00
2023-05-23T12:04:57.018Z,1921.00
2023-05-23T12:05:56.871Z,1929.00
2023-05-23T12:06:56.914Z,1911.00
2023-05-23T12:07:56.916Z,1908.00
2023-05-23T12:08:56.889Z,1890.00
2023-05-23T12:09:56.998Z,1897.00
2023-05-23T12:10:56.840Z,1897.00
2023-05-23T12:11:56.829Z,1873.00
2023-05-23T12:12:56.828Z,1870.00
2023-05-23T12:13:56.814Z,1868.00
2023-05-23T12:14:56.938Z,1858.00
2023-05-23T12:15:56.844Z,1851.00
2023-05-23T12:16:56.937Z,1850.00
2023-05-23T12:17:56.911Z,1863.00
2023-05-23T12:18:56.885Z,1834.00
2023-05-23T12:19:56.949Z,1834.00
2023-05-23T12:20:56.757Z,1839.00
2023-05-23T12:21:56.769Z,1831.00
2023-05-23T12:22:56.761Z,1822.00
2023-05-23T12:23:56.745Z,1834.00
2023-05-23T12:24:56.950Z,1823.00
2023-05-23T12:25:56.981Z,1823.00